createdAt,value
2022-10-19T00:01:54.822Z,8.33
2022-10-19T00:05:54.276Z,8.28
2022-10-19T00:10:22.519Z,8.23
2022-10-19T00:11:52.221Z,8.22
2022-10-19T00:13:52.160Z,8.23
2022-10-19T00:15:21.905Z,8.23
2022-10-19T00:27:50.089Z,8.05
2022-10-19T00:30:19.308Z,8.04
2022-10-19T00:33:48.585Z,7.93
2022-10-19T00:35:18.292Z,7.95
2022-10-19T00:37:47.497Z,7.90
2022-10-19T00:40:16.758Z,7.89
2022-10-19T00:42:46.876Z,7.89
2022-10-19T00:44:16.616Z,7.87
2022-10-19T00:46:16.097Z,7.85
2022-10-19T00:47:45.813Z,7.82
2022-10-19T00:51:16.634Z,7.74
2022-10-19T00:53:16.123Z,7.72
2022-10-19T00:54:45.811Z,7.69
2022-10-19T00:57:15.012Z,7.67
2022-10-19T01:02:12.943Z,7.61
2022-10-19T01:04:12.360Z,7.60
2022-10-19T01:07:11.328Z,7.57
2022-10-19T01:09:10.784Z,7.55
2022-10-19T01:11:10.231Z,7.52
2022-10-19T01:12:39.959Z,7.49
2022-10-19T01:15:09.176Z,7.48
2022-10-19T01:25:07.654Z,7.39
2022-10-19T01:27:37.128Z,7.37
2022-10-19T01:31:37.163Z,7.31
2022-10-19T01:33:36.513Z,7.28
2022-10-19T01:35:06.217Z,7.28
2022-10-19T01:38:36.796Z,7.27
2022-10-19T01:46:05.960Z,7.17
2022-10-19T01:47:36.496Z,7.20
2022-10-19T01:50:17.576Z,7.20
2022-10-19T01:55:17.406Z,7.15
2022-10-19T01:58:14.995Z,7.13
2022-10-19T02:05:42.399Z,7.06
2022-10-19T02:07:12.104Z,7.06
2022-10-19T02:11:10.560Z,7.02
2022-10-19T02:14:10.042Z,6.98
2022-10-19T02:20:40.043Z,6.95
2022-10-19T02:24:38.414Z,6.92
2022-10-19T02:27:10.034Z,6.91
2022-10-19T02:30:08.958Z,6.91
2022-10-19T02:32:09.501Z,6.89
2022-10-19T02:34:38.782Z,6.89
2022-10-19T02:37:08.088Z,6.87
2022-10-19T02:38:40.823Z,6.84
2022-10-19T02:42:39.378Z,6.79
2022-10-19T02:45:09.575Z,6.77
2022-10-19T02:50:39.639Z,6.74
2022-10-19T02:53:39.091Z,6.71
2022-10-19T02:56:08.817Z,6.71
2022-10-19T02:57:38.538Z,6.70
2022-10-19T03:02:06.697Z,6.66
2022-10-19T03:07:46.141Z,6.62
2022-10-19T03:09:15.864Z,6.62
2022-10-19T03:11:15.306Z,6.61
2022-10-19T03:14:14.734Z,6.56
2022-10-19T03:15:44.958Z,6.56
2022-10-19T03:17:44.412Z,6.56
2022-10-19T03:19:44.359Z,6.55
2022-10-19T03:21:14.082Z,6.54
2022-10-19T03:22:43.815Z,6.51
2022-10-19T03:29:12.734Z,6.44
2022-10-19T03:30:42.462Z,6.44
2022-10-19T03:34:11.699Z,6.43
2022-10-19T03:39:10.629Z,6.38
2022-10-19T03:46:07.496Z,6.34
2022-10-19T03:48:07.460Z,6.33
2022-10-19T03:55:34.625Z,6.28
2022-10-19T03:59:04.908Z,6.27
2022-10-19T04:01:05.370Z,6.21
2022-10-19T04:06:06.790Z,6.22
2022-10-19T04:07:36.891Z,6.22
2022-10-19T04:09:37.307Z,6.19
2022-10-19T04:11:08.338Z,6.18
2022-10-19T04:13:08.675Z,6.14
2022-10-19T04:16:40.011Z,6.18
2022-10-19T04:18:41.266Z,6.15
2022-10-19T04:21:11.998Z,6.15
2022-10-19T04:22:42.094Z,6.15
2022-10-19T04:25:43.186Z,6.14
2022-10-19T04:29:14.623Z,6.12
2022-10-19T04:32:45.859Z,6.14
2022-10-19T04:34:46.279Z,6.14
2022-10-19T04:37:17.032Z,6.14
2022-10-19T04:42:19.302Z,6.15
2022-10-19T04:48:21.396Z,6.12
2022-10-19T04:56:54.220Z,6.11
2022-10-19T04:58:24.321Z,6.09
2022-10-19T04:59:55.246Z,6.09
2022-10-19T05:10:00.599Z,6.09
2022-10-19T05:13:01.680Z,6.12
2022-10-19T05:14:31.800Z,6.14
2022-10-19T05:16:29.760Z,6.14
2022-10-19T05:18:30.191Z,6.14
2022-10-19T05:20:59.769Z,6.15
2022-10-19T05:22:59.129Z,6.17
2022-10-19T05:24:58.185Z,6.15
2022-10-19T05:28:27.905Z,6.14
2022-10-19T05:29:58.293Z,6.12
2022-10-19T05:35:29.535Z,6.14
2022-10-19T05:36:59.402Z,6.11
2022-10-19T05:38:29.084Z,6.12
2022-10-19T05:42:00.846Z,6.08
2022-10-19T05:45:01.884Z,6.11
2022-10-19T05:47:02.307Z,6.14
2022-10-19T05:52:34.089Z,6.14
2022-10-19T05:54:34.507Z,6.12
2022-10-19T05:57:35.689Z,6.14
2022-10-19T06:00:04.480Z,6.14
2022-10-19T06:04:03.534Z,6.21
2022-10-19T06:13:42.331Z,6.36
2022-10-19T06:15:12.037Z,6.38
2022-10-19T06:19:40.760Z,6.43
2022-10-19T06:30:11.534Z,6.49
2022-10-19T06:32:11.401Z,6.51
2022-10-19T06:33:41.779Z,6.49
2022-10-19T06:37:11.242Z,6.58
2022-10-19T06:45:40.769Z,6.76
2022-10-19T06:47:10.896Z,6.81
2022-10-19T06:50:09.879Z,6.91
2022-10-19T06:54:08.978Z,7.02
2022-10-19T06:56:08.439Z,7.07
2022-10-19T07:01:39.233Z,7.27
2022-10-19T07:03:09.351Z,7.30
2022-10-19T07:05:10.035Z,7.34
2022-10-19T07:07:39.705Z,7.42
2022-10-19T07:14:37.895Z,7.63
2022-10-19T07:16:37.350Z,7.68
2022-10-19T07:18:07.559Z,7.72
2022-10-19T07:22:36.582Z,7.92
2022-10-19T07:25:35.994Z,8.01
2022-10-19T07:32:43.181Z,8.25
2022-10-19T07:34:40.346Z,8.33
2022-10-19T07:36:39.812Z,8.38
2022-10-19T07:39:09.814Z,8.47
2022-10-19T07:41:09.830Z,8.53
2022-10-19T07:43:11.620Z,8.62
2022-10-19T07:48:12.698Z,8.79
2022-10-19T07:50:43.690Z,8.86
2022-10-19T07:57:16.220Z,9.04
2022-10-19T07:58:45.900Z,9.11
2022-10-19T08:05:00.270Z,9.32
2022-10-19T08:06:49.208Z,9.39
2022-10-19T08:08:18.914Z,9.46
2022-10-19T08:11:17.893Z,9.56
2022-10-19T08:12:47.582Z,9.58
2022-10-19T08:17:52.787Z,9.68
2022-10-19T08:20:54.658Z,9.74
2022-10-19T08:24:23.346Z,9.84
2022-10-19T08:26:23.094Z,9.89
2022-10-19T08:28:55.534Z,9.96
2022-10-19T08:30:56.546Z,10.04
2022-10-19T08:35:26.555Z,10.15
2022-10-19T08:37:40.749Z,10.20
2022-10-19T08:38:56.660Z,10.26
2022-10-19T08:40:26.416Z,10.30
2022-10-19T08:41:56.624Z,10.32
2022-10-19T08:43:26.335Z,10.34
2022-10-19T08:45:55.588Z,10.41
2022-10-19T08:47:25.318Z,10.44
2022-10-19T08:49:25.780Z,10.45
2022-10-19T08:51:27.037Z,10.47
2022-10-19T08:58:07.537Z,10.59
2022-10-19T09:02:08.738Z,10.71
2022-10-19T09:04:10.091Z,10.73
2022-10-19T09:05:39.782Z,10.76
2022-10-19T09:08:14.177Z,10.81
2022-10-19T09:14:04.109Z,10.88
2022-10-19T09:18:16.269Z,10.97
2022-10-19T09:19:44.269Z,10.99
2022-10-19T09:22:14.295Z,11.06
2022-10-19T09:24:15.264Z,11.11
2022-10-19T09:26:42.965Z,11.18
2022-10-19T09:28:42.940Z,11.27
2022-10-19T09:30:42.425Z,11.29
2022-10-19T09:33:42.034Z,11.36
2022-10-19T09:35:11.706Z,11.36
2022-10-19T09:42:11.005Z,11.57
2022-10-19T09:44:40.682Z,11.60
2022-10-19T09:47:12.959Z,11.64
2022-10-19T09:50:12.294Z,11.64
2022-10-19T09:51:41.976Z,11.67
2022-10-19T09:57:11.302Z,11.82
2022-10-19T10:00:09.556Z,11.96
2022-10-19T10:04:41.293Z,12.04
2022-10-19T10:06:10.984Z,12.09
2022-10-19T10:09:42.245Z,12.17
2022-10-19T10:13:10.905Z,12.24
2022-10-19T10:14:40.598Z,12.24
2022-10-19T10:15:40.581Z,12.23
2022-10-19T10:16:40.560Z,12.28
2022-10-19T10:22:39.497Z,12.23
2022-10-19T10:24:09.196Z,12.21
2022-10-19T10:25:38.919Z,12.24
2022-10-19T10:28:08.048Z,12.27
2022-10-19T10:31:07.049Z,12.29
2022-10-19T10:33:45.295Z,12.35
2022-10-19T10:38:37.082Z,12.32
2022-10-19T10:40:06.779Z,12.32
2022-10-19T10:42:06.254Z,12.29
2022-10-19T10:43:36.479Z,12.28
2022-10-19T10:45:06.184Z,12.28
2022-10-19T10:46:35.872Z,12.29
2022-10-19T10:50:04.612Z,12.29
2022-10-19T10:51:34.381Z,12.28
2022-10-19T10:54:04.153Z,12.28
2022-10-19T10:55:33.854Z,12.31
2022-10-19T10:58:03.575Z,12.32
2022-10-19T10:59:33.269Z,12.31
2022-10-19T11:01:06.591Z,12.32
2022-10-19T11:02:32.719Z,12.35
2022-10-19T11:06:31.670Z,12.39
2022-10-19T11:09:01.487Z,12.45
2022-10-19T11:11:01.395Z,12.45
2022-10-19T11:13:30.596Z,12.47
2022-10-19T11:16:00.139Z,12.54
2022-10-19T11:18:00.777Z,12.56
2022-10-19T11:19:30.489Z,12.59
2022-10-19T11:22:00.172Z,12.60
2022-10-19T11:26:29.381Z,12.59
2022-10-19T11:28:28.795Z,12.64
2022-10-19T11:29:58.487Z,12.68
2022-10-19T11:33:28.362Z,12.67
2022-10-19T11:34:58.068Z,12.70
2022-10-19T11:36:27.758Z,12.71
2022-10-19T11:38:30.207Z,12.72
2022-10-19T11:40:27.726Z,12.70
2022-10-19T11:43:27.119Z,12.72
2022-10-19T11:44:56.452Z,12.72
2022-10-19T11:47:25.682Z,12.75
2022-10-19T11:48:55.391Z,12.79
2022-10-19T11:51:24.627Z,12.83
2022-10-19T11:52:54.362Z,12.83
2022-10-19T11:54:24.059Z,12.85
2022-10-19T11:56:34.773Z,12.85
2022-10-19T11:57:54.288Z,12.85
2022-10-19T12:00:39.944Z,12.87
2022-10-19T12:02:27.160Z,12.89
2022-10-19T12:06:26.555Z,12.95
2022-10-19T12:08:58.828Z,12.95
2022-10-19T12:11:58.413Z,13.00
2022-10-19T12:13:57.871Z,12.97
2022-10-19T12:15:27.581Z,12.97
2022-10-19T12:21:26.002Z,13.01
2022-10-19T12:23:25.474Z,13.07
2022-10-19T12:24:55.207Z,13.10
2022-10-19T12:29:24.445Z,13.11
2022-10-19T12:30:54.626Z,13.14
2022-10-19T12:33:24.374Z,13.14
2022-10-19T12:34:55.093Z,13.20
2022-10-19T12:39:00.095Z,13.29
2022-10-19T12:41:24.224Z,13.32
2022-10-19T12:46:22.612Z,13.33
2022-10-19T12:47:52.283Z,13.38
2022-10-19T12:49:22.479Z,13.41
2022-10-19T13:00:17.774Z,13.36
2022-10-19T13:03:46.390Z,13.38
2022-10-19T13:05:16.108Z,13.33
2022-10-19T13:06:45.809Z,13.33
2022-10-19T13:08:15.513Z,13.30
2022-10-19T13:15:12.546Z,13.32
2022-10-19T13:19:40.854Z,13.36
2022-10-19T13:24:09.997Z,13.38
2022-10-19T13:27:39.667Z,13.38
2022-10-19T13:30:09.467Z,13.39
2022-10-19T13:34:08.363Z,13.32
2022-10-19T13:35:38.120Z,13.30
2022-10-19T13:39:07.843Z,13.32
2022-10-19T13:43:06.837Z,13.33
2022-10-19T13:45:36.091Z,13.39
2022-10-19T13:47:05.806Z,13.36
2022-10-19T13:48:35.553Z,13.36
2022-10-19T13:52:34.857Z,13.38
2022-10-19T13:55:04.237Z,13.41
2022-10-19T13:58:33.742Z,13.41
2022-10-19T14:05:01.178Z,13.38
2022-10-19T14:08:29.983Z,13.36
2022-10-19T14:11:01.162Z,13.39
2022-10-19T14:13:58.366Z,13.39
2022-10-19T14:16:39.154Z,13.38
2022-10-19T14:18:12.038Z,13.36
2022-10-19T14:20:39.093Z,13.33
2022-10-19T14:24:08.547Z,13.39
2022-10-19T14:26:08.010Z,13.38
2022-10-19T14:28:37.316Z,13.36
2022-10-19T14:30:07.473Z,13.36
2022-10-19T14:33:07.257Z,13.36
2022-10-19T14:35:36.972Z,13.36
2022-10-19T14:38:06.381Z,13.36
2022-10-19T14:43:05.745Z,13.33
2022-10-19T14:45:35.905Z,13.30
2022-10-19T14:47:36.088Z,13.29
2022-10-19T14:52:08.046Z,13.26
2022-10-19T14:53:38.163Z,13.25
2022-10-19T14:55:08.296Z,13.25
2022-10-19T15:00:08.606Z,13.22
2022-10-19T15:01:38.351Z,13.22
2022-10-19T15:03:40.242Z,13.17
2022-10-19T15:09:24.654Z,13.14
2022-10-19T15:11:46.884Z,13.12
2022-10-19T15:15:17.157Z,13.10
2022-10-19T15:18:49.900Z,13.04
2022-10-19T15:21:18.201Z,13.00
2022-10-19T15:23:48.080Z,12.96
2022-10-19T15:27:49.442Z,12.90
2022-10-19T15:29:20.373Z,12.89
2022-10-19T15:30:50.365Z,12.87
2022-10-19T15:33:39.496Z,12.83
2022-10-19T15:40:38.009Z,12.74
2022-10-19T15:42:37.925Z,12.71
2022-10-19T15:44:07.738Z,12.68
2022-10-19T15:48:06.772Z,12.64
2022-10-19T15:51:05.837Z,12.60
2022-10-19T15:56:07.679Z,12.53
2022-10-19T16:04:09.399Z,12.42
2022-10-19T16:06:39.702Z,12.38
2022-10-19T16:09:12.064Z,12.32
2022-10-19T16:12:12.841Z,12.29
2022-10-19T16:15:12.186Z,12.24
2022-10-19T16:20:10.138Z,12.17
2022-10-19T16:23:41.974Z,12.13
2022-10-19T16:25:09.423Z,12.13
2022-10-19T16:26:39.140Z,12.10
2022-10-19T16:30:11.572Z,12.05
2022-10-19T16:31:41.311Z,12.02
2022-10-19T16:35:18.738Z,11.95
2022-10-19T16:39:55.417Z,11.90
2022-10-19T16:42:29.717Z,11.88
2022-10-19T16:43:56.294Z,11.88
2022-10-19T16:48:28.443Z,11.82
2022-10-19T16:50:29.713Z,11.79
2022-10-19T16:55:59.349Z,11.75
2022-10-19T17:02:27.688Z,11.70
2022-10-19T17:05:26.911Z,11.65
2022-10-19T17:09:57.926Z,11.55
2022-10-19T17:17:36.464Z,11.40
2022-10-19T17:19:05.739Z,11.39
2022-10-19T17:30:12.605Z,11.25
2022-10-19T17:31:42.300Z,11.25
2022-10-19T17:35:45.469Z,11.24
2022-10-19T17:37:15.191Z,11.21
2022-10-19T17:40:46.201Z,11.22
2022-10-19T17:42:47.466Z,11.19
2022-10-19T17:53:01.829Z,11.15
2022-10-19T17:56:31.556Z,11.15
2022-10-19T17:58:36.311Z,11.10
2022-10-19T18:00:35.668Z,11.09
2022-10-19T18:05:39.584Z,11.07
2022-10-19T18:08:40.829Z,11.09
2022-10-19T18:14:14.423Z,11.09
2022-10-19T18:15:44.119Z,11.09
2022-10-19T18:17:46.391Z,11.10
2022-10-19T18:26:22.448Z,11.06
2022-10-19T18:31:57.046Z,11.02
2022-10-19T18:33:30.226Z,11.00
2022-10-19T18:37:03.253Z,10.96
2022-10-19T18:41:31.920Z,10.94
2022-10-19T18:56:10.616Z,10.89
2022-10-19T18:59:41.154Z,10.85
2022-10-19T19:00:43.439Z,10.82
2022-10-19T19:01:41.136Z,10.82
2022-10-19T19:03:10.825Z,10.81
2022-10-19T19:05:42.283Z,10.81
2022-10-19T19:08:13.328Z,10.81
2022-10-19T19:10:43.710Z,10.78
2022-10-19T19:12:14.023Z,10.78
2022-10-19T19:14:43.827Z,10.76
2022-10-19T19:20:14.745Z,10.70
2022-10-19T19:22:43.917Z,10.67
2022-10-19T19:24:43.359Z,10.63
2022-10-19T19:28:49.035Z,10.55
2022-10-19T19:42:27.750Z,10.40
2022-10-19T19:45:24.544Z,10.36
2022-10-19T19:46:54.255Z,10.38
2022-10-19T19:48:53.729Z,10.36
2022-10-19T19:50:23.925Z,10.34
2022-10-19T19:52:53.094Z,10.33
2022-10-19T19:56:23.859Z,10.27
2022-10-19T20:00:25.163Z,10.22
2022-10-19T20:01:55.383Z,10.22
2022-10-19T20:04:25.089Z,10.22
2022-10-19T20:05:54.821Z,10.20
2022-10-19T20:09:34.751Z,10.14
2022-10-19T20:19:33.204Z,10.02
2022-10-19T20:21:02.920Z,10.01
2022-10-19T20:23:02.414Z,10.02
2022-10-19T20:25:33.410Z,9.99
2022-10-19T20:27:03.117Z,9.97
2022-10-19T20:33:06.946Z,9.91
2022-10-19T20:41:12.713Z,9.86
2022-10-19T20:45:12.777Z,9.86
2022-10-19T20:46:42.451Z,9.86
2022-10-19T20:49:11.669Z,9.84
2022-10-19T20:50:41.402Z,9.83
2022-10-19T20:54:22.348Z,9.78
2022-10-19T21:02:24.422Z,9.66
2022-10-19T21:05:54.091Z,9.64
2022-10-19T21:32:49.740Z,9.50
2022-10-19T21:34:49.158Z,9.43
2022-10-19T21:37:19.411Z,9.40
2022-10-19T21:41:52.440Z,9.36
2022-10-19T21:45:54.945Z,9.35
2022-10-19T21:51:59.477Z,9.33
2022-10-19T21:53:59.948Z,9.32
2022-10-19T21:56:00.315Z,9.29
2022-10-19T22:09:39.501Z,9.20
2022-10-19T22:11:39.935Z,9.18
2022-10-19T22:16:41.395Z,9.15
2022-10-19T22:18:41.821Z,9.13
2022-10-19T22:24:14.446Z,9.08
2022-10-19T22:26:45.145Z,9.05
2022-10-19T22:29:15.891Z,9.05
2022-10-19T22:36:20.225Z,9.05
2022-10-19T22:42:24.925Z,8.99
2022-10-19T22:48:26.047Z,8.94
2022-10-19T22:53:59.457Z,8.92
2022-10-19T22:56:29.629Z,8.89
2022-10-19T22:57:59.522Z,8.87
2022-10-19T23:01:00.516Z,8.84
2022-10-19T23:08:04.058Z,8.77
2022-10-19T23:10:04.471Z,8.74
2022-10-19T23:12:05.710Z,8.77
2022-10-19T23:20:43.447Z,8.76
2022-10-19T23:23:44.498Z,8.76
2022-10-19T23:25:14.598Z,8.76
2022-10-19T23:30:16.064Z,8.68
2022-10-19T23:37:19.595Z,8.59
2022-10-19T23:39:50.321Z,8.56
2022-10-19T23:41:50.754Z,8.55
2022-10-19T23:43:51.179Z,8.50
2022-10-19T23:46:21.907Z,8.50
2022-10-19T23:54:56.361Z,8.43
2022-10-19T23:59:26.687Z,8.41
